sensor_id;sensor_type;location;lat;lon;timestamp;P1;durP1;ratioP1;P2;durP2;ratioP2
43670;SDS011;29267;50.906;7.248;2023-04-15T00:00:14;5.25;;;2.00;;
43670;SDS011;29267;50.906;7.248;2023-04-15T00:02:39;6.78;;;2.28;;
43670;SDS011;29267;50.906;7.248;2023-04-15T00:05:05;11.90;;;1.65;;
43670;SDS011;29267;50.906;7.248;2023-04-15T00:07:32;4.22;;;1.58;;
43670;SDS011;29267;50.906;7.248;2023-04-15T00:09:57;3.63;;;2.05;;
43670;SDS011;29267;50.906;7.248;2023-04-15T00:12:23;6.20;;;1.88;;
43670;SDS011;29267;50.906;7.248;2023-04-15T00:14:52;5.32;;;1.75;;
43670;SDS011;29267;50.906;7.248;2023-04-15T00:17:18;9.00;;;1.70;;
43670;SDS011;29267;50.906;7.248;2023-04-15T00:19:45;5.20;;;1.48;;
43670;SDS011;29267;50.906;7.248;2023-04-15T00:22:10;3.90;;;1.50;;
43670;SDS011;29267;50.906;7.248;2023-04-15T00:24:37;5.45;;;1.75;;
43670;SDS011;29267;50.906;7.248;2023-04-15T00:27:03;10.43;;;1.98;;
43670;SDS011;29267;50.906;7.248;2023-04-15T00:29:29;9.13;;;1.92;;
43670;SDS011;29267;50.906;7.248;2023-04-15T00:31:54;4.93;;;2.03;;
43670;SDS011;29267;50.906;7.248;2023-04-15T00:34:21;6.85;;;1.85;;
43670;SDS011;29267;50.906;7.248;2023-04-15T00:36:47;5.13;;;1.63;;
43670;SDS011;29267;50.906;7.248;2023-04-15T00:39:13;2.65;;;2.00;;
43670;SDS011;29267;50.906;7.248;2023-04-15T00:41:40;6.07;;;2.08;;
43670;SDS011;29267;50.906;7.248;2023-04-15T00:44:06;10.02;;;1.90;;
43670;SDS011;29267;50.906;7.248;2023-04-15T00:46:32;7.78;;;1.60;;
43670;SDS011;29267;50.906;7.248;2023-04-15T00:49:01;5.22;;;1.85;;
43670;SDS011;29267;50.906;7.248;2023-04-15T00:51:28;3.33;;;1.50;;
43670;SDS011;29267;50.906;7.248;2023-04-15T00:53:55;3.85;;;1.40;;
43670;SDS011;29267;50.906;7.248;2023-04-15T00:56:21;6.45;;;1.98;;
43670;SDS011;29267;50.906;7.248;2023-04-15T00:58:48;12.27;;;2.22;;
43670;SDS011;29267;50.906;7.248;2023-04-15T01:01:15;7.35;;;2.00;;
43670;SDS011;29267;50.906;7.248;2023-04-15T01:03:45;9.85;;;2.03;;
43670;SDS011;29267;50.906;7.248;2023-04-15T01:06:11;6.88;;;1.90;;
43670;SDS011;29267;50.906;7.248;2023-04-15T01:08:38;12.13;;;2.13;;
43670;SDS011;29267;50.906;7.248;2023-04-15T01:11:04;7.05;;;2.45;;
43670;SDS011;29267;50.906;7.248;2023-04-15T01:13:31;6.78;;;2.03;;
43670;SDS011;29267;50.906;7.248;2023-04-15T01:15:59;5.65;;;2.33;;
43670;SDS011;29267;50.906;7.248;2023-04-15T01:18:25;4.72;;;2.40;;
43670;SDS011;29267;50.906;7.248;2023-04-15T01:20:52;8.68;;;1.98;;
43670;SDS011;29267;50.906;7.248;2023-04-15T01:23:17;6.05;;;1.98;;
43670;SDS011;29267;50.906;7.248;2023-04-15T01:25:44;5.57;;;2.03;;
43670;SDS011;29267;50.906;7.248;2023-04-15T01:28:10;5.18;;;2.00;;
43670;SDS011;29267;50.906;7.248;2023-04-15T01:30:36;3.47;;;2.13;;
43670;SDS011;29267;50.906;7.248;2023-04-15T01:33:01;4.70;;;1.75;;
43670;SDS011;29267;50.906;7.248;2023-04-15T01:35:27;11.20;;;2.30;;
43670;SDS011;29267;50.906;7.248;2023-04-15T01:37:53;7.25;;;2.25;;
43670;SDS011;29267;50.906;7.248;2023-04-15T01:40:23;5.20;;;1.85;;
43670;SDS011;29267;50.906;7.248;2023-04-15T01:42:49;6.15;;;2.38;;
43670;SDS011;29267;50.906;7.248;2023-04-15T01:45:15;6.50;;;2.25;;
43670;SDS011;29267;50.906;7.248;2023-04-15T01:47:41;10.55;;;2.35;;
43670;SDS011;29267;50.906;7.248;2023-04-15T01:50:07;7.05;;;2.47;;
43670;SDS011;29267;50.906;7.248;2023-04-15T01:52:33;5.57;;;2.47;;
43670;SDS011;29267;50.906;7.248;2023-04-15T01:54:59;5.03;;;1.67;;
43670;SDS011;29267;50.906;7.248;2023-04-15T01:57:25;6.07;;;2.50;;
43670;SDS011;29267;50.906;7.248;2023-04-15T01:59:51;6.97;;;2.20;;
43670;SDS011;29267;50.906;7.248;2023-04-15T02:02:16;6.38;;;2.65;;
43670;SDS011;29267;50.906;7.248;2023-04-15T02:04:42;6.38;;;2.13;;
43670;SDS011;29267;50.906;7.248;2023-04-15T02:07:08;6.30;;;2.00;;
43670;SDS011;29267;50.906;7.248;2023-04-15T02:09:34;7.07;;;2.05;;
43670;SDS011;29267;50.906;7.248;2023-04-15T02:11:59;7.45;;;1.90;;
43670;SDS011;29267;50.906;7.248;2023-04-15T02:14:25;4.05;;;2.40;;
43670;SDS011;29267;50.906;7.248;2023-04-15T02:16:51;6.43;;;2.92;;
43670;SDS011;29267;50.906;7.248;2023-04-15T02:19:17;8.35;;;1.92;;
43670;SDS011;29267;50.906;7.248;2023-04-15T02:21:42;8.20;;;2.05;;
43670;SDS011;29267;50.906;7.248;2023-04-15T02:24:08;9.55;;;1.92;;
43670;SDS011;29267;50.906;7.248;2023-04-15T02:26:34;6.78;;;3.22;;
43670;SDS011;29267;50.906;7.248;2023-04-15T02:28:59;5.72;;;2.42;;
43670;SDS011;29267;50.906;7.248;2023-04-15T02:31:25;5.43;;;2.13;;
43670;SDS011;29267;50.906;7.248;2023-04-15T02:33:50;9.65;;;2.30;;
43670;SDS011;29267;50.906;7.248;2023-04-15T02:36:16;5.40;;;2.38;;
43670;SDS011;29267;50.906;7.248;2023-04-15T02:38:42;9.88;;;3.03;;
43670;SDS011;29267;50.906;7.248;2023-04-15T02:41:08;5.82;;;2.25;;
43670;SDS011;29267;50.906;7.248;2023-04-15T02:43:34;10.52;;;3.13;;
43670;SDS011;29267;50.906;7.248;2023-04-15T02:46:00;4.28;;;1.92;;
43670;SDS011;29267;50.906;7.248;2023-04-15T02:48:25;5.50;;;2.33;;
43670;SDS011;29267;50.906;7.248;2023-04-15T02:50:51;5.50;;;2.50;;
43670;SDS011;29267;50.906;7.248;2023-04-15T02:53:17;7.03;;;2.53;;
43670;SDS011;29267;50.906;7.248;2023-04-15T02:55:43;9.52;;;2.65;;
43670;SDS011;29267;50.906;7.248;2023-04-15T02:58:10;5.32;;;3.42;;
43670;SDS011;29267;50.906;7.248;2023-04-15T03:00:35;7.57;;;3.03;;
43670;SDS011;29267;50.906;7.248;2023-04-15T03:03:02;6.95;;;2.28;;
43670;SDS011;29267;50.906;7.248;2023-04-15T03:05:29;8.57;;;2.58;;
43670;SDS011;29267;50.906;7.248;2023-04-15T03:07:54;7.88;;;2.28;;
43670;SDS011;29267;50.906;7.248;2023-04-15T03:10:20;7.25;;;2.17;;
43670;SDS011;29267;50.906;7.248;2023-04-15T03:12:46;6.85;;;3.00;;
43670;SDS011;29267;50.906;7.248;2023-04-15T03:15:12;8.82;;;2.63;;
43670;SDS011;29267;50.906;7.248;2023-04-15T03:17:37;7.03;;;2.95;;
43670;SDS011;29267;50.906;7.248;2023-04-15T03:20:04;6.55;;;3.33;;
43670;SDS011;29267;50.906;7.248;2023-04-15T03:22:31;7.75;;;3.05;;
43670;SDS011;29267;50.906;7.248;2023-04-15T03:24:57;6.88;;;2.83;;
43670;SDS011;29267;50.906;7.248;2023-04-15T03:27:23;5.32;;;2.95;;
43670;SDS011;29267;50.906;7.248;2023-04-15T03:29:49;5.75;;;3.05;;
43670;SDS011;29267;50.906;7.248;2023-04-15T03:32:14;4.90;;;2.70;;
43670;SDS011;29267;50.906;7.248;2023-04-15T03:34:41;4.53;;;2.70;;
43670;SDS011;29267;50.906;7.248;2023-04-15T03:37:06;5.97;;;3.80;;
43670;SDS011;29267;50.906;7.248;2023-04-15T03:39:32;4.90;;;3.08;;
43670;SDS011;29267;50.906;7.248;2023-04-15T03:41:58;7.20;;;3.38;;
43670;SDS011;29267;50.906;7.248;2023-04-15T03:44:27;7.28;;;3.30;;
43670;SDS011;29267;50.906;7.248;2023-04-15T03:46:52;6.55;;;2.97;;
43670;SDS011;29267;50.906;7.248;2023-04-15T03:49:18;6.32;;;3.03;;
43670;SDS011;29267;50.906;7.248;2023-04-15T03:51:44;9.23;;;4.43;;
43670;SDS011;29267;50.906;7.248;2023-04-15T03:54:10;6.55;;;3.42;;
43670;SDS011;29267;50.906;7.248;2023-04-15T03:56:36;12.80;;;6.10;;
43670;SDS011;29267;50.906;7.248;2023-04-15T03:59:02;6.72;;;3.55;;
43670;SDS011;29267;50.906;7.248;2023-04-15T04:01:28;11.82;;;3.88;;
43670;SDS011;29267;50.906;7.248;2023-04-15T04:03:53;5.47;;;3.80;;
43670;SDS011;29267;50.906;7.248;2023-04-15T04:06:19;9.35;;;4.30;;
43670;SDS011;29267;50.906;7.248;2023-04-15T04:08:44;10.38;;;4.20;;
43670;SDS011;29267;50.906;7.248;2023-04-15T04:11:10;7.65;;;3.65;;
43670;SDS011;29267;50.906;7.248;2023-04-15T04:13:35;12.32;;;3.75;;
43670;SDS011;29267;50.906;7.248;2023-04-15T04:16:01;11.45;;;3.30;;
43670;SDS011;29267;50.906;7.248;2023-04-15T04:18:28;7.80;;;3.15;;
43670;SDS011;29267;50.906;7.248;2023-04-15T04:20:55;5.35;;;3.45;;
43670;SDS011;29267;50.906;7.248;2023-04-15T04:23:21;5.28;;;3.25;;
43670;SDS011;29267;50.906;7.248;2023-04-15T04:25:46;9.90;;;3.78;;
43670;SDS011;29267;50.906;7.248;2023-04-15T04:28:12;6.57;;;3.63;;
43670;SDS011;29267;50.906;7.248;2023-04-15T04:30:38;9.82;;;4.13;;
43670;SDS011;29267;50.906;7.248;2023-04-15T04:33:04;9.75;;;3.80;;
43670;SDS011;29267;50.906;7.248;2023-04-15T04:35:30;8.60;;;4.30;;
43670;SDS011;29267;50.906;7.248;2023-04-15T04:37:58;6.85;;;4.10;;
43670;SDS011;29267;50.906;7.248;2023-04-15T04:40:24;7.35;;;4.15;;
43670;SDS011;29267;50.906;7.248;2023-04-15T04:42:51;9.13;;;3.83;;
43670;SDS011;29267;50.906;7.248;2023-04-15T04:45:17;8.35;;;4.22;;
43670;SDS011;29267;50.906;7.248;2023-04-15T04:47:43;7.28;;;3.97;;
43670;SDS011;29267;50.906;7.248;2023-04-15T04:50:09;10.25;;;5.07;;
43670;SDS011;29267;50.906;7.248;2023-04-15T04:52:35;17.38;;;4.97;;
43670;SDS011;29267;50.906;7.248;2023-04-15T04:55:00;10.90;;;4.32;;
43670;SDS011;29267;50.906;7.248;2023-04-15T04:57:26;11.88;;;5.38;;
43670;SDS011;29267;50.906;7.248;2023-04-15T04:59:51;7.10;;;4.80;;
43670;SDS011;29267;50.906;7.248;2023-04-15T05:02:17;9.85;;;4.90;;
43670;SDS011;29267;50.906;7.248;2023-04-15T05:04:42;6.53;;;4.13;;
43670;SDS011;29267;50.906;7.248;2023-04-15T05:07:08;6.90;;;3.65;;
43670;SDS011;29267;50.906;7.248;2023-04-15T05:09:34;7.90;;;4.05;;
43670;SDS011;29267;50.906;7.248;2023-04-15T05:12:00;8.05;;;3.78;;
43670;SDS011;29267;50.906;7.248;2023-04-15T05:14:26;10.48;;;4.50;;
43670;SDS011;29267;50.906;7.248;2023-04-15T05:16:52;8.27;;;4.38;;
43670;SDS011;29267;50.906;7.248;2023-04-15T05:19:17;10.20;;;4.80;;
43670;SDS011;29267;50.906;7.248;2023-04-15T05:21:43;8.80;;;4.45;;
43670;SDS011;29267;50.906;7.248;2023-04-15T05:24:09;7.35;;;4.22;;
43670;SDS011;29267;50.906;7.248;2023-04-15T05:26:34;13.15;;;3.33;;
43670;SDS011;29267;50.906;7.248;2023-04-15T05:29:00;10.10;;;3.67;;
43670;SDS011;29267;50.906;7.248;2023-04-15T05:31:25;13.90;;;3.90;;
43670;SDS011;29267;50.906;7.248;2023-04-15T05:33:51;8.05;;;3.72;;
43670;SDS011;29267;50.906;7.248;2023-04-15T05:36:16;8.00;;;3.85;;
43670;SDS011;29267;50.906;7.248;2023-04-15T05:38:42;7.00;;;4.40;;
43670;SDS011;29267;50.906;7.248;2023-04-15T05:41:08;8.18;;;3.92;;
43670;SDS011;29267;50.906;7.248;2023-04-15T05:43:33;7.15;;;4.38;;
43670;SDS011;29267;50.906;7.248;2023-04-15T05:45:59;7.35;;;4.35;;
43670;SDS011;29267;50.906;7.248;2023-04-15T05:48:24;11.43;;;4.07;;
43670;SDS011;29267;50.906;7.248;2023-04-15T05:50:50;7.47;;;4.07;;
43670;SDS011;29267;50.906;7.248;2023-04-15T05:53:15;8.30;;;3.38;;
43670;SDS011;29267;50.906;7.248;2023-04-15T05:55:41;11.80;;;3.95;;
43670;SDS011;29267;50.906;7.248;2023-04-15T05:58:07;6.20;;;3.50;;
43670;SDS011;29267;50.906;7.248;2023-04-15T06:00:32;8.88;;;3.33;;
43670;SDS011;29267;50.906;7.248;2023-04-15T06:02:58;6.57;;;3.17;;
43670;SDS011;29267;50.906;7.248;2023-04-15T06:05:24;5.82;;;3.70;;
43670;SDS011;29267;50.906;7.248;2023-04-15T06:07:50;8.48;;;3.35;;
43670;SDS011;29267;50.906;7.248;2023-04-15T06:10:16;5.57;;;2.85;;
43670;SDS011;29267;50.906;7.248;2023-04-15T06:12:41;6.07;;;3.20;;
43670;SDS011;29267;50.906;7.248;2023-04-15T06:15:07;9.27;;;3.83;;
43670;SDS011;29267;50.906;7.248;2023-04-15T06:17:34;6.53;;;4.40;;
43670;SDS011;29267;50.906;7.248;2023-04-15T06:20:00;8.82;;;5.43;;
43670;SDS011;29267;50.906;7.248;2023-04-15T06:22:26;10.90;;;5.20;;
43670;SDS011;29267;50.906;7.248;2023-04-15T06:24:52;11.45;;;7.45;;
43670;SDS011;29267;50.906;7.248;2023-04-15T06:27:18;11.32;;;8.23;;
43670;SDS011;29267;50.906;7.248;2023-04-15T06:29:43;6.57;;;4.40;;
43670;SDS011;29267;50.906;7.248;2023-04-15T06:32:09;8.73;;;4.68;;
43670;SDS011;29267;50.906;7.248;2023-04-15T06:34:35;6.80;;;4.15;;
43670;SDS011;29267;50.906;7.248;2023-04-15T06:37:00;6.78;;;3.40;;
43670;SDS011;29267;50.906;7.248;2023-04-15T06:39:26;6.55;;;2.95;;
43670;SDS011;29267;50.906;7.248;2023-04-15T06:41:51;7.28;;;3.08;;
43670;SDS011;29267;50.906;7.248;2023-04-15T06:44:17;4.43;;;2.35;;
43670;SDS011;29267;50.906;7.248;2023-04-15T06:46:43;7.07;;;2.78;;
43670;SDS011;29267;50.906;7.248;2023-04-15T06:49:08;11.23;;;3.63;;
43670;SDS011;29267;50.906;7.248;2023-04-15T06:51:35;9.48;;;3.28;;
43670;SDS011;29267;50.906;7.248;2023-04-15T06:54:01;9.63;;;3.17;;
43670;SDS011;29267;50.906;7.248;2023-04-15T06:56:30;6.03;;;3.20;;
43670;SDS011;29267;50.906;7.248;2023-04-15T06:58:56;9.20;;;3.10;;
43670;SDS011;29267;50.906;7.248;2023-04-15T07:01:21;10.02;;;3.45;;
43670;SDS011;29267;50.906;7.248;2023-04-15T07:03:47;4.90;;;3.35;;
43670;SDS011;29267;50.906;7.248;2023-04-15T07:06:12;6.15;;;3.58;;
43670;SDS011;29267;50.906;7.248;2023-04-15T07:08:38;6.32;;;4.40;;
43670;SDS011;29267;50.906;7.248;2023-04-15T07:11:04;6.80;;;4.57;;
43670;SDS011;29267;50.906;7.248;2023-04-15T07:13:30;4.85;;;3.42;;
43670;SDS011;29267;50.906;7.248;2023-04-15T07:15:56;5.55;;;3.90;;
43670;SDS011;29267;50.906;7.248;2023-04-15T07:18:22;7.95;;;4.18;;
43670;SDS011;29267;50.906;7.248;2023-04-15T07:20:48;7.05;;;3.75;;
43670;SDS011;29267;50.906;7.248;2023-04-15T07:23:14;5.43;;;3.60;;
43670;SDS011;29267;50.906;7.248;2023-04-15T07:25:40;6.57;;;4.72;;
43670;SDS011;29267;50.906;7.248;2023-04-15T07:28:05;6.32;;;4.13;;
43670;SDS011;29267;50.906;7.248;2023-04-15T07:30:31;6.63;;;4.22;;
43670;SDS011;29267;50.906;7.248;2023-04-15T07:32:57;7.93;;;4.57;;
43670;SDS011;29267;50.906;7.248;2023-04-15T07:35:23;9.35;;;4.47;;
43670;SDS011;29267;50.906;7.248;2023-04-15T07:37:50;5.70;;;3.78;;
43670;SDS011;29267;50.906;7.248;2023-04-15T07:40:16;5.25;;;3.08;;
43670;SDS011;29267;50.906;7.248;2023-04-15T07:42:42;7.95;;;4.55;;
43670;SDS011;29267;50.906;7.248;2023-04-15T07:45:08;6.18;;;3.53;;
43670;SDS011;29267;50.906;7.248;2023-04-15T07:47:34;4.85;;;3.60;;
43670;SDS011;29267;50.906;7.248;2023-04-15T07:50:00;6.40;;;3.58;;
43670;SDS011;29267;50.906;7.248;2023-04-15T07:52:26;7.72;;;3.00;;
43670;SDS011;29267;50.906;7.248;2023-04-15T07:54:52;5.63;;;3.08;;
43670;SDS011;29267;50.906;7.248;2023-04-15T07:57:18;4.18;;;3.17;;
43670;SDS011;29267;50.906;7.248;2023-04-15T07:59:44;4.72;;;2.97;;
43670;SDS011;29267;50.906;7.248;2023-04-15T08:02:10;4.07;;;2.97;;
43670;SDS011;29267;50.906;7.248;2023-04-15T08:04:36;4.90;;;2.63;;
43670;SDS011;29267;50.906;7.248;2023-04-15T08:07:02;3.33;;;2.42;;
43670;SDS011;29267;50.906;7.248;2023-04-15T08:09:28;3.63;;;2.30;;
43670;SDS011;29267;50.906;7.248;2023-04-15T08:11:54;3.85;;;2.63;;
43670;SDS011;29267;50.906;7.248;2023-04-15T08:14:21;5.18;;;2.30;;
43670;SDS011;29267;50.906;7.248;2023-04-15T08:16:47;2.92;;;2.20;;
43670;SDS011;29267;50.906;7.248;2023-04-15T08:19:12;4.35;;;2.10;;
43670;SDS011;29267;50.906;7.248;2023-04-15T08:21:38;4.50;;;2.00;;
43670;SDS011;29267;50.906;7.248;2023-04-15T08:24:05;2.50;;;1.60;;
43670;SDS011;29267;50.906;7.248;2023-04-15T08:26:31;5.22;;;1.95;;
43670;SDS011;29267;50.906;7.248;2023-04-15T08:28:56;2.58;;;1.90;;
43670;SDS011;29267;50.906;7.248;2023-04-15T08:31:22;3.33;;;2.05;;
43670;SDS011;29267;50.906;7.248;2023-04-15T08:33:48;2.25;;;1.92;;
43670;SDS011;29267;50.906;7.248;2023-04-15T08:36:16;3.05;;;2.17;;
43670;SDS011;29267;50.906;7.248;2023-04-15T08:38:43;2.85;;;1.67;;
43670;SDS011;29267;50.906;7.248;2023-04-15T08:41:17;2.05;;;1.70;;
43670;SDS011;29267;50.906;7.248;2023-04-15T08:44:00;2.65;;;1.70;;
43670;SDS011;29267;50.906;7.248;2023-04-15T08:46:29;3.47;;;1.98;;
43670;SDS011;29267;50.906;7.248;2023-04-15T08:48:56;4.20;;;1.67;;
43670;SDS011;29267;50.906;7.248;2023-04-15T08:51:22;2.47;;;1.52;;
43670;SDS011;29267;50.906;7.248;2023-04-15T08:53:48;2.85;;;1.90;;
43670;SDS011;29267;50.906;7.248;2023-04-15T08:56:15;3.25;;;2.03;;
43670;SDS011;29267;50.906;7.248;2023-04-15T08:58:42;3.97;;;2.03;;
43670;SDS011;29267;50.906;7.248;2023-04-15T09:01:10;2.17;;;1.70;;
43670;SDS011;29267;50.906;7.248;2023-04-15T09:03:36;2.42;;;2.05;;
43670;SDS011;29267;50.906;7.248;2023-04-15T09:06:06;2.88;;;1.45;;
43670;SDS011;29267;50.906;7.248;2023-04-15T09:08:32;2.90;;;1.48;;
43670;SDS011;29267;50.906;7.248;2023-04-15T09:11:01;1.42;;;1.17;;
43670;SDS011;29267;50.906;7.248;2023-04-15T09:13:27;2.70;;;1.83;;
43670;SDS011;29267;50.906;7.248;2023-04-15T09:15:53;2.70;;;1.70;;
43670;SDS011;29267;50.906;7.248;2023-04-15T09:18:29;2.05;;;1.50;;
43670;SDS011;29267;50.906;7.248;2023-04-15T09:21:03;1.95;;;1.55;;
43670;SDS011;29267;50.906;7.248;2023-04-15T09:23:35;2.15;;;1.25;;
43670;SDS011;29267;50.906;7.248;2023-04-15T09:26:02;3.35;;;1.80;;
43670;SDS011;29267;50.906;7.248;2023-04-15T09:28:28;3.15;;;1.70;;
43670;SDS011;29267;50.906;7.248;2023-04-15T09:30:55;2.28;;;1.55;;
43670;SDS011;29267;50.906;7.248;2023-04-15T09:33:22;2.00;;;1.45;;
43670;SDS011;29267;50.906;7.248;2023-04-15T09:36:03;1.60;;;1.35;;
43670;SDS011;29267;50.906;7.248;2023-04-15T09:38:30;4.97;;;1.73;;
43670;SDS011;29267;50.906;7.248;2023-04-15T09:40:56;4.43;;;1.70;;
43670;SDS011;29267;50.906;7.248;2023-04-15T09:43:22;4.15;;;1.80;;
43670;SDS011;29267;50.906;7.248;2023-04-15T09:46:01;3.25;;;1.20;;
43670;SDS011;29267;50.906;7.248;2023-04-15T09:48:26;2.17;;;1.35;;
43670;SDS011;29267;50.906;7.248;2023-04-15T09:50:53;1.95;;;1.63;;
43670;SDS011;29267;50.906;7.248;2023-04-15T09:53:22;2.85;;;1.38;;
43670;SDS011;29267;50.906;7.248;2023-04-15T09:55:53;4.25;;;1.80;;
43670;SDS011;29267;50.906;7.248;2023-04-15T09:58:21;1.65;;;1.50;;
43670;SDS011;29267;50.906;7.248;2023-04-15T10:00:49;1.88;;;1.40;;
43670;SDS011;29267;50.906;7.248;2023-04-15T10:03:26;1.30;;;0.95;;
43670;SDS011;29267;50.906;7.248;2023-04-15T10:05:57;2.40;;;1.10;;
43670;SDS011;29267;50.906;7.248;2023-04-15T10:08:24;1.77;;;1.30;;
43670;SDS011;29267;50.906;7.248;2023-04-15T10:10:54;1.90;;;1.40;;
43670;SDS011;29267;50.906;7.248;2023-04-15T10:13:23;2.20;;;1.48;;
43670;SDS011;29267;50.906;7.248;2023-04-15T10:15:51;1.50;;;1.33;;
43670;SDS011;29267;50.906;7.248;2023-04-15T10:18:26;1.90;;;1.25;;
43670;SDS011;29267;50.906;7.248;2023-04-15T10:20:53;2.35;;;1.50;;
43670;SDS011;29267;50.906;7.248;2023-04-15T10:23:19;2.13;;;1.52;;
43670;SDS011;29267;50.906;7.248;2023-04-15T10:25:47;2.72;;;1.67;;
43670;SDS011;29267;50.906;7.248;2023-04-15T10:28:15;2.55;;;1.83;;
43670;SDS011;29267;50.906;7.248;2023-04-15T10:30:41;2.55;;;1.73;;
43670;SDS011;29267;50.906;7.248;2023-04-15T10:33:08;5.18;;;1.92;;
43670;SDS011;29267;50.906;7.248;2023-04-15T10:35:35;2.65;;;2.13;;
43670;SDS011;29267;50.906;7.248;2023-04-15T10:38:01;4.05;;;2.30;;
43670;SDS011;29267;50.906;7.248;2023-04-15T10:40:28;2.88;;;2.10;;
43670;SDS011;29267;50.906;7.248;2023-04-15T10:43:00;4.00;;;2.75;;
43670;SDS011;29267;50.906;7.248;2023-04-15T10:45:27;4.28;;;2.70;;
43670;SDS011;29267;50.906;7.248;2023-04-15T10:48:03;3.88;;;2.75;;
43670;SDS011;29267;50.906;7.248;2023-04-15T10:50:31;4.07;;;2.58;;
43670;SDS011;29267;50.906;7.248;2023-04-15T10:52:57;3.83;;;2.17;;
43670;SDS011;29267;50.906;7.248;2023-04-15T10:55:24;5.68;;;3.33;;
43670;SDS011;29267;50.906;7.248;2023-04-15T10:57:54;8.30;;;3.33;;
43670;SDS011;29267;50.906;7.248;2023-04-15T11:00:25;5.75;;;2.58;;
43670;SDS011;29267;50.906;7.248;2023-04-15T11:02:55;3.63;;;2.70;;
43670;SDS011;29267;50.906;7.248;2023-04-15T11:08:07;4.55;;;3.10;;
43670;SDS011;29267;50.906;7.248;2023-04-15T11:13:01;6.75;;;2.85;;
43670;SDS011;29267;50.906;7.248;2023-04-15T11:15:41;6.10;;;2.65;;
43670;SDS011;29267;50.906;7.248;2023-04-15T11:20:50;4.95;;;2.50;;
43670;SDS011;29267;50.906;7.248;2023-04-15T11:25:53;2.63;;;2.20;;
43670;SDS011;29267;50.906;7.248;2023-04-15T11:28:23;3.58;;;2.63;;
43670;SDS011;29267;50.906;7.248;2023-04-15T11:30:53;3.65;;;2.28;;
43670;SDS011;29267;50.906;7.248;2023-04-15T11:33:19;3.08;;;2.13;;
43670;SDS011;29267;50.906;7.248;2023-04-15T11:35:46;3.88;;;2.13;;
43670;SDS011;29267;50.906;7.248;2023-04-15T11:38:12;3.05;;;1.90;;
43670;SDS011;29267;50.906;7.248;2023-04-15T11:40:39;3.17;;;2.08;;
43670;SDS011;29267;50.906;7.248;2023-04-15T11:43:06;2.28;;;1.80;;
43670;SDS011;29267;50.906;7.248;2023-04-15T11:45:34;2.60;;;1.83;;
43670;SDS011;29267;50.906;7.248;2023-04-15T11:48:07;2.90;;;1.90;;
43670;SDS011;29267;50.906;7.248;2023-04-15T11:50:36;3.47;;;1.90;;
43670;SDS011;29267;50.906;7.248;2023-04-15T11:53:05;5.30;;;2.20;;
43670;SDS011;29267;50.906;7.248;2023-04-15T11:55:45;4.68;;;2.50;;
43670;SDS011;29267;50.906;7.248;2023-04-15T11:58:23;2.80;;;2.15;;
43670;SDS011;29267;50.906;7.248;2023-04-15T12:00:53;2.55;;;1.80;;
43670;SDS011;29267;50.906;7.248;2023-04-15T12:06:10;4.25;;;2.70;;
43670;SDS011;29267;50.906;7.248;2023-04-15T12:16:22;4.68;;;3.25;;
43670;SDS011;29267;50.906;7.248;2023-04-15T12:18:52;4.38;;;3.10;;
43670;SDS011;29267;50.906;7.248;2023-04-15T12:21:20;5.00;;;3.22;;
43670;SDS011;29267;50.906;7.248;2023-04-15T12:23:54;6.38;;;3.75;;
43670;SDS011;29267;50.906;7.248;2023-04-15T12:26:24;4.43;;;2.78;;
43670;SDS011;29267;50.906;7.248;2023-04-15T12:28:54;6.95;;;3.58;;
43670;SDS011;29267;50.906;7.248;2023-04-15T12:31:24;5.18;;;3.22;;
43670;SDS011;29267;50.906;7.248;2023-04-15T12:33:50;4.32;;;3.10;;
43670;SDS011;29267;50.906;7.248;2023-04-15T12:36:15;7.05;;;3.90;;
43670;SDS011;29267;50.906;7.248;2023-04-15T12:38:41;4.38;;;3.10;;
43670;SDS011;29267;50.906;7.248;2023-04-15T12:41:06;6.80;;;3.55;;
43670;SDS011;29267;50.906;7.248;2023-04-15T12:43:32;4.82;;;3.28;;
43670;SDS011;29267;50.906;7.248;2023-04-15T12:45:57;6.05;;;3.60;;
43670;SDS011;29267;50.906;7.248;2023-04-15T12:48:23;5.68;;;3.67;;
43670;SDS011;29267;50.906;7.248;2023-04-15T12:50:49;5.80;;;4.05;;
43670;SDS011;29267;50.906;7.248;2023-04-15T12:53:14;4.63;;;3.45;;
43670;SDS011;29267;50.906;7.248;2023-04-15T12:55:40;9.45;;;2.90;;
43670;SDS011;29267;50.906;7.248;2023-04-15T12:58:06;5.30;;;3.28;;
43670;SDS011;29267;50.906;7.248;2023-04-15T13:00:34;4.63;;;3.15;;
43670;SDS011;29267;50.906;7.248;2023-04-15T13:03:00;6.57;;;4.20;;
43670;SDS011;29267;50.906;7.248;2023-04-15T13:05:26;5.45;;;3.40;;
43670;SDS011;29267;50.906;7.248;2023-04-15T13:07:52;6.25;;;3.10;;
43670;SDS011;29267;50.906;7.248;2023-04-15T13:10:17;5.28;;;3.65;;
43670;SDS011;29267;50.906;7.248;2023-04-15T13:12:43;8.20;;;4.85;;
43670;SDS011;29267;50.906;7.248;2023-04-15T13:15:11;6.97;;;4.35;;
43670;SDS011;29267;50.906;7.248;2023-04-15T13:17:37;6.15;;;4.00;;
43670;SDS011;29267;50.906;7.248;2023-04-15T13:20:02;8.05;;;4.50;;
43670;SDS011;29267;50.906;7.248;2023-04-15T13:22:28;7.68;;;4.47;;
43670;SDS011;29267;50.906;7.248;2023-04-15T13:24:54;7.28;;;4.53;;
43670;SDS011;29267;50.906;7.248;2023-04-15T13:27:19;7.22;;;5.00;;
43670;SDS011;29267;50.906;7.248;2023-04-15T13:29:45;7.55;;;5.22;;
43670;SDS011;29267;50.906;7.248;2023-04-15T13:32:11;7.53;;;4.57;;
43670;SDS011;29267;50.906;7.248;2023-04-15T13:34:36;6.43;;;4.40;;
43670;SDS011;29267;50.906;7.248;2023-04-15T13:37:06;7.60;;;4.22;;
43670;SDS011;29267;50.906;7.248;2023-04-15T13:39:32;8.25;;;4.85;;
43670;SDS011;29267;50.906;7.248;2023-04-15T13:41:58;6.85;;;4.72;;
43670;SDS011;29267;50.906;7.248;2023-04-15T13:44:23;4.78;;;3.55;;
43670;SDS011;29267;50.906;7.248;2023-04-15T13:46:49;6.63;;;4.22;;
43670;SDS011;29267;50.906;7.248;2023-04-15T13:49:17;6.90;;;4.10;;
43670;SDS011;29267;50.906;7.248;2023-04-15T13:51:42;6.78;;;3.72;;
43670;SDS011;29267;50.906;7.248;2023-04-15T13:54:08;6.90;;;4.65;;
43670;SDS011;29267;50.906;7.248;2023-04-15T13:56:34;5.55;;;3.97;;
43670;SDS011;29267;50.906;7.248;2023-04-15T13:59:00;5.32;;;3.55;;
43670;SDS011;29267;50.906;7.248;2023-04-15T14:01:26;5.90;;;4.28;;
43670;SDS011;29267;50.906;7.248;2023-04-15T14:03:52;5.85;;;4.15;;
43670;SDS011;29267;50.906;7.248;2023-04-15T14:06:17;7.28;;;4.38;;
43670;SDS011;29267;50.906;7.248;2023-04-15T14:08:43;6.38;;;4.00;;
43670;SDS011;29267;50.906;7.248;2023-04-15T14:11:09;7.65;;;5.50;;
43670;SDS011;29267;50.906;7.248;2023-04-15T14:13:35;7.00;;;5.25;;
43670;SDS011;29267;50.906;7.248;2023-04-15T14:16:00;7.13;;;5.30;;
43670;SDS011;29267;50.906;7.248;2023-04-15T14:18:26;7.38;;;4.82;;
43670;SDS011;29267;50.906;7.248;2023-04-15T14:20:52;8.82;;;5.43;;
43670;SDS011;29267;50.906;7.248;2023-04-15T14:23:17;8.32;;;5.95;;
43670;SDS011;29267;50.906;7.248;2023-04-15T14:25:43;10.10;;;5.55;;
43670;SDS011;29267;50.906;7.248;2023-04-15T14:28:09;7.05;;;5.28;;
43670;SDS011;29267;50.906;7.248;2023-04-15T14:30:34;7.97;;;5.53;;
43670;SDS011;29267;50.906;7.248;2023-04-15T14:33:00;9.77;;;5.95;;
43670;SDS011;29267;50.906;7.248;2023-04-15T14:35:26;9.80;;;6.60;;
43670;SDS011;29267;50.906;7.248;2023-04-15T14:37:52;7.20;;;5.30;;
43670;SDS011;29267;50.906;7.248;2023-04-15T14:40:18;8.73;;;5.38;;
43670;SDS011;29267;50.906;7.248;2023-04-15T14:42:44;8.68;;;6.25;;
43670;SDS011;29267;50.906;7.248;2023-04-15T14:45:10;8.50;;;5.63;;
43670;SDS011;29267;50.906;7.248;2023-04-15T14:47:35;10.38;;;6.43;;
43670;SDS011;29267;50.906;7.248;2023-04-15T14:50:01;8.15;;;5.70;;
43670;SDS011;29267;50.906;7.248;2023-04-15T14:52:27;7.70;;;5.22;;
43670;SDS011;29267;50.906;7.248;2023-04-15T14:54:56;8.82;;;6.63;;
43670;SDS011;29267;50.906;7.248;2023-04-15T14:57:21;7.32;;;5.47;;
43670;SDS011;29267;50.906;7.248;2023-04-15T14:59:47;8.27;;;5.60;;
43670;SDS011;29267;50.906;7.248;2023-04-15T15:02:12;7.10;;;5.35;;